Aérodrome :
LOGIN :

S'inscrire | Disclaimer

   EN    FR    IT 

 










Légende :    VFR   VFR Marginal   IFR   IFR Intensif   IFR Très Intensif
Visi : 
Plafond : 
>= 8 km
>= 3000ft
5 à 8 km
1000 à 3000 ft
1500m à 5 km
500 à 1000 ft
800 à 1500m
200 à 500 ft
< 800m
< 200 ft
Symboles :   Orages  Brouillard  Fortes neiges  Fortes précipitations  Vent > 20 kt
SIGMETs :   Divers  Orages  Givrage  Turbulence  Onde Orograph.  Cendres Volcan.






- Altitude de l'aérodrome : 390 ft
- Code IATA : NQY


EGHQ - Newquay

DERNIER METAR :
  • 100020Z AUTO 17009KT 9999 FEW017/// 06/05 Q1024

METARs EXPIRÉS :
  • 092350Z AUTO 18009KT 9999 SCT020/// 06/05 Q1024
  • 092320Z AUTO 18008KT 9999 NCD 05/04 Q1024
  • 092250Z AUTO 18007KT 9999 NCD 05/04 Q1025
  • 092220Z AUTO 19007KT 9999 FEW009/// 05/04 Q1025
  • 092150Z AUTO 18006KT 9999 NCD 05/04 Q1025

TAF TAF EGHQ
Valide du 10 à 00h jusqu'au 10 à 09h UTC


092302Z 1000/1009 19004KT CAVOK
BECMG 1000/1003 19014KT FEW008 BKN030
BECMG 1003/1006 20020G30KT
BECMG 1006/1009 22025G40KT
TEMPO 1006/1009 4000 RA BKN008



MET'MAP, la Météo Aéronautique d'un coup d'oeil ! - Copyright ORBIFLY Décembre 2007 - Disclaimer

ORBIFLY MET'MAP TEAM :

Programmation & Développement : Alexandra Zaïnal
Sur une idée originale de : Baudouin d'Aumeries
Assistance à la programmation : Marc-Olivier Méhu
Soutien technique & logistique : Manuel Goepfert

Contact : metmap@orbifly.com




SOURCES & CREDITS :

   NOAA